createdAt,value
2023-03-29T00:03:21.906Z,67.10
2023-03-29T00:07:23.304Z,66.93
2023-03-29T00:11:25.160Z,67.40
2023-03-29T00:15:26.558Z,67.43
2023-03-29T00:19:29.250Z,68.40
2023-03-29T00:23:30.668Z,69.37
2023-03-29T00:27:32.018Z,69.93
2023-03-29T00:31:33.420Z,69.84
2023-03-29T00:35:37.545Z,68.98
2023-03-29T00:39:38.899Z,69.98
2023-03-29T00:43:53.843Z,70.54
2023-03-29T00:47:56.861Z,70.70
2023-03-29T00:51:59.759Z,70.44
2023-03-29T00:56:02.942Z,70.32
2023-03-29T01:00:05.293Z,68.42
2023-03-29T01:04:08.101Z,68.46
2023-03-29T01:08:12.460Z,69.56
2023-03-29T01:12:15.570Z,68.79
2023-03-29T01:16:18.264Z,68.87
2023-03-29T01:20:22.855Z,68.30
2023-03-29T01:24:33.716Z,67.44
2023-03-29T01:28:38.884Z,67.86
2023-03-29T01:32:43.386Z,69.28
2023-03-29T01:36:48.262Z,67.27
2023-03-29T01:40:49.734Z,65.81
2023-03-29T01:44:56.494Z,65.60
2023-03-29T01:48:59.625Z,66.15
2023-03-29T01:53:04.150Z,66.17
2023-03-29T01:57:07.391Z,65.46
2023-03-29T02:01:12.051Z,66.37
2023-03-29T02:05:14.963Z,66.54
2023-03-29T02:09:16.888Z,65.79
2023-03-29T02:13:18.581Z,65.63
2023-03-29T02:17:22.300Z,65.94
2023-03-29T02:21:25.627Z,66.51
2023-03-29T02:25:27.024Z,66.96
2023-03-29T02:29:28.527Z,66.52
2023-03-29T02:33:34.254Z,66.82
2023-03-29T02:37:37.289Z,67.46
2023-03-29T02:41:39.168Z,68.42
2023-03-29T02:45:41.536Z,69.23
2023-03-29T02:49:44.399Z,69.66
2023-03-29T02:53:48.400Z,70.63
2023-03-29T02:57:49.759Z,71.46
2023-03-29T03:01:51.200Z,72.56
2023-03-29T03:05:54.093Z,73.54
2023-03-29T03:09:55.550Z,74.54
2023-03-29T03:13:57.033Z,74.98
2023-03-29T03:17:58.420Z,75.07
2023-03-29T03:22:01.141Z,76.10
2023-03-29T03:26:02.479Z,76.78
2023-03-29T03:30:04.516Z,78.27
2023-03-29T03:34:05.906Z,79.56
2023-03-29T03:38:08.616Z,80.49
2023-03-29T03:42:09.995Z,81.80
2023-03-29T03:46:11.457Z,82.77
2023-03-29T03:50:12.809Z,83.11
2023-03-29T03:54:15.537Z,82.75
2023-03-29T03:58:17.137Z,83.64
2023-03-29T04:02:18.529Z,83.84
2023-03-29T04:06:19.879Z,84.00
2023-03-29T04:10:22.586Z,84.78
2023-03-29T04:14:23.954Z,85.46
2023-03-29T04:18:25.443Z,85.64
2023-03-29T04:22:27.028Z,86.02
2023-03-29T04:26:29.745Z,85.82
2023-03-29T04:30:31.093Z,86.22
2023-03-29T04:34:32.478Z,86.79
2023-03-29T04:38:33.791Z,87.11
2023-03-29T04:42:36.597Z,87.21
2023-03-29T04:46:38.063Z,87.05
2023-03-29T04:50:39.481Z,86.89
2023-03-29T04:54:40.836Z,86.86
2023-03-29T04:58:43.547Z,86.51
2023-03-29T05:02:45.590Z,86.71
2023-03-29T05:06:46.973Z,86.53
2023-03-29T05:10:48.315Z,86.28
2023-03-29T05:14:51.029Z,86.39
2023-03-29T05:18:52.391Z,86.76
2023-03-29T05:22:53.869Z,86.55
2023-03-29T05:26:55.231Z,86.86
2023-03-29T05:31:01.987Z,86.48
2023-03-29T05:35:03.820Z,86.85
2023-03-29T05:39:05.228Z,86.59
2023-03-29T05:43:06.574Z,86.28
2023-03-29T05:47:09.275Z,85.86
2023-03-29T05:51:10.613Z,86.69
2023-03-29T05:55:11.954Z,87.42
2023-03-29T05:59:13.360Z,86.83
2023-03-29T06:07:19.241Z,85.86
2023-03-29T06:11:20.642Z,85.75
2023-03-29T06:15:21.978Z,86.22
2023-03-29T06:19:24.691Z,86.37
2023-03-29T06:23:26.069Z,84.87
2023-03-29T06:27:27.760Z,84.58
2023-03-29T06:31:29.131Z,83.93
2023-03-29T06:35:31.890Z,83.24
2023-03-29T06:39:33.219Z,82.88
2023-03-29T06:43:34.674Z,83.68
2023-03-29T06:47:36.318Z,84.50
2023-03-29T06:51:39.052Z,84.13
2023-03-29T06:55:40.414Z,83.86
2023-03-29T06:59:41.752Z,84.09
2023-03-29T07:03:46.024Z,83.73
2023-03-29T07:07:49.630Z,83.62
2023-03-29T07:11:50.968Z,83.42
2023-03-29T07:15:52.397Z,83.53
2023-03-29T07:19:53.757Z,83.41
2023-03-29T07:23:56.745Z,82.97
2023-03-29T07:27:58.088Z,82.90
2023-03-29T07:31:59.518Z,82.46
2023-03-29T07:36:00.965Z,81.88
2023-03-29T07:40:04.661Z,80.81
2023-03-29T07:44:06.018Z,80.66
2023-03-29T07:48:07.771Z,82.71
2023-03-29T07:52:09.139Z,82.89
2023-03-29T07:56:11.820Z,83.08
2023-03-29T08:00:13.681Z,82.77
2023-03-29T08:04:15.130Z,81.17
2023-03-29T08:08:16.507Z,81.59
2023-03-29T08:12:19.209Z,81.40
2023-03-29T08:16:20.550Z,81.01
2023-03-29T08:20:22.001Z,81.52
2023-03-29T08:24:23.390Z,80.55
2023-03-29T08:28:26.097Z,79.00
2023-03-29T08:32:27.503Z,79.72
2023-03-29T08:36:28.849Z,79.43
2023-03-29T08:40:30.331Z,79.53
2023-03-29T08:44:44.039Z,79.76
2023-03-29T08:48:47.865Z,78.84
2023-03-29T08:52:51.242Z,78.09
2023-03-29T08:56:54.900Z,76.08
2023-03-29T09:00:58.419Z,76.14
2023-03-29T09:05:02.403Z,74.93
2023-03-29T09:09:03.824Z,74.50
2023-03-29T09:13:13.580Z,73.68
2023-03-29T09:17:24.933Z,72.90
2023-03-29T09:21:29.198Z,72.26
2023-03-29T09:25:50.860Z,71.03
2023-03-29T09:30:02.439Z,72.74
2023-03-29T09:34:12.590Z,71.19
2023-03-29T09:38:16.855Z,72.45
2023-03-29T09:42:18.426Z,69.85
2023-03-29T09:46:22.770Z,69.18
2023-03-29T09:50:31.954Z,69.29
2023-03-29T09:54:33.562Z,68.76
2023-03-29T09:58:34.973Z,69.11
2023-03-29T10:02:36.383Z,67.47
2023-03-29T10:06:41.439Z,67.99
2023-03-29T10:10:42.758Z,68.11
2023-03-29T10:14:46.122Z,67.37
2023-03-29T10:18:47.471Z,67.53
2023-03-29T10:22:54.842Z,68.32
2023-03-29T10:26:58.141Z,70.28
2023-03-29T10:31:00.715Z,70.07
2023-03-29T10:35:06.194Z,68.36
2023-03-29T10:39:10.296Z,68.08
2023-03-29T10:43:12.623Z,68.76
2023-03-29T10:47:15.463Z,68.89
2023-03-29T10:51:17.871Z,69.53
2023-03-29T10:55:21.639Z,67.95
2023-03-29T10:59:28.071Z,68.30
2023-03-29T11:03:38.267Z,68.43
2023-03-29T11:07:46.447Z,67.65
2023-03-29T11:12:08.307Z,67.49
2023-03-29T11:16:25.550Z,67.05
2023-03-29T11:20:30.881Z,67.23
2023-03-29T11:24:42.586Z,66.40
2023-03-29T11:28:49.917Z,66.48
2023-03-29T11:32:54.571Z,65.07
2023-03-29T11:36:59.416Z,65.61
2023-03-29T11:41:03.316Z,66.53
2023-03-29T11:45:12.047Z,65.14
2023-03-29T11:49:16.784Z,67.20
2023-03-29T11:53:21.874Z,66.46
2023-03-29T11:57:26.095Z,66.31
2023-03-29T12:01:31.410Z,65.44
2023-03-29T12:05:35.757Z,65.76
2023-03-29T12:09:39.223Z,66.63
2023-03-29T12:13:43.759Z,67.07
2023-03-29T12:17:49.102Z,66.72
2023-03-29T12:21:50.937Z,65.53
2023-03-29T12:25:53.202Z,66.51
2023-03-29T12:30:09.508Z,64.82
2023-03-29T12:34:19.519Z,63.97
2023-03-29T12:38:22.197Z,63.60
2023-03-29T12:42:23.895Z,65.87
2023-03-29T12:46:26.746Z,65.05
2023-03-29T12:50:32.941Z,66.14
2023-03-29T12:54:34.291Z,64.78
2023-03-29T12:58:48.775Z,64.64
2023-03-29T13:02:59.574Z,63.96
2023-03-29T13:07:02.439Z,65.52
2023-03-29T13:11:04.576Z,65.59
2023-03-29T13:15:07.216Z,65.09
2023-03-29T13:19:16.101Z,64.63
2023-03-29T13:23:27.127Z,64.31
2023-03-29T13:27:33.437Z,64.84
2023-03-29T13:31:38.124Z,65.18
2023-03-29T13:35:44.722Z,64.05
2023-03-29T13:39:49.723Z,64.38
2023-03-29T13:43:52.576Z,63.75
2023-03-29T13:52:10.771Z,64.07
2023-03-29T13:56:17.074Z,62.77
2023-03-29T14:00:21.777Z,62.90
2023-03-29T14:04:24.282Z,63.04
2023-03-29T14:08:27.174Z,62.66
2023-03-29T14:12:34.262Z,62.87
2023-03-29T14:16:37.265Z,63.12
2023-03-29T14:20:42.576Z,63.12
2023-03-29T14:24:47.773Z,63.89
2023-03-29T14:28:50.984Z,64.84
2023-03-29T14:32:52.471Z,65.89
2023-03-29T14:36:54.242Z,66.70
2023-03-29T14:40:58.839Z,66.60
2023-03-29T14:45:04.449Z,67.16
2023-03-29T14:49:05.907Z,66.97
2023-03-29T14:53:08.473Z,67.56
2023-03-29T14:57:14.621Z,68.87
2023-03-29T15:01:18.692Z,69.13
2023-03-29T15:05:25.443Z,69.62
2023-03-29T15:09:28.964Z,69.36
2023-03-29T15:13:30.696Z,68.58
2023-03-29T15:17:49.470Z,68.80
2023-03-29T15:21:53.055Z,69.58
2023-03-29T15:25:56.134Z,69.99
2023-03-29T15:30:01.367Z,70.81
2023-03-29T15:34:06.317Z,71.05
2023-03-29T15:38:10.633Z,70.88
2023-03-29T15:42:12.223Z,71.40
2023-03-29T15:46:13.761Z,71.94
2023-03-29T15:50:16.750Z,71.79
2023-03-29T15:54:18.108Z,71.90
2023-03-29T15:58:22.601Z,72.23
2023-03-29T16:02:24.520Z,71.09
2023-03-29T16:06:27.326Z,71.30
2023-03-29T16:10:28.683Z,71.34
2023-03-29T16:14:30.179Z,70.89
2023-03-29T16:18:31.521Z,70.37
2023-03-29T16:22:34.217Z,69.82
2023-03-29T16:26:35.757Z,70.67
2023-03-29T16:30:37.570Z,70.80
2023-03-29T16:34:39.200Z,71.89
2023-03-29T16:38:42.257Z,71.86
2023-03-29T16:42:44.039Z,72.05
2023-03-29T16:46:45.603Z,71.89
2023-03-29T16:50:47.224Z,72.45
2023-03-29T16:54:49.902Z,72.58
2023-03-29T16:58:51.232Z,72.34
2023-03-29T17:02:52.791Z,72.98
2023-03-29T17:06:54.222Z,73.24
2023-03-29T17:10:57.237Z,73.58
2023-03-29T17:14:58.592Z,74.03
2023-03-29T17:18:59.967Z,73.90
2023-03-29T17:23:01.378Z,73.35
2023-03-29T17:27:04.085Z,73.90
2023-03-29T17:31:05.872Z,73.89
2023-03-29T17:35:07.583Z,73.95
2023-03-29T17:39:08.956Z,74.94
2023-03-29T17:43:11.642Z,75.79
2023-03-29T17:47:13.007Z,76.08
2023-03-29T17:51:14.354Z,76.11
2023-03-29T17:55:16.224Z,75.70
2023-03-29T17:59:18.950Z,76.28
2023-03-29T18:03:20.334Z,76.91
2023-03-29T18:07:21.689Z,77.70
2023-03-29T18:11:23.296Z,78.37
2023-03-29T18:15:26.463Z,78.57
2023-03-29T18:19:27.981Z,78.55
2023-03-29T18:23:29.362Z,78.66
2023-03-29T18:27:30.890Z,79.13
2023-03-29T18:31:34.181Z,78.81
2023-03-29T18:35:35.578Z,79.16
2023-03-29T18:39:36.933Z,79.39
2023-03-29T18:43:38.312Z,79.55
2023-03-29T18:47:41.053Z,80.09
2023-03-29T18:51:42.432Z,79.55
2023-03-29T18:55:44.150Z,79.44
2023-03-29T18:59:45.564Z,79.11
2023-03-29T19:03:48.428Z,79.14
2023-03-29T19:07:49.931Z,79.19
2023-03-29T19:11:51.282Z,78.94
2023-03-29T19:15:52.694Z,79.55
2023-03-29T19:19:55.421Z,79.67
2023-03-29T19:23:56.777Z,80.06
2023-03-29T19:27:58.574Z,79.83
2023-03-29T19:32:00.007Z,79.26
2023-03-29T19:36:02.969Z,79.71
2023-03-29T19:40:05.142Z,80.27
2023-03-29T19:44:06.499Z,81.31
2023-03-29T19:48:07.896Z,82.35
2023-03-29T19:52:10.624Z,83.06
2023-03-29T19:56:11.993Z,83.46
2023-03-29T20:00:13.776Z,84.04
2023-03-29T20:04:15.153Z,83.53
2023-03-29T20:08:17.851Z,83.27
2023-03-29T20:12:19.184Z,83.75
2023-03-29T20:16:20.601Z,83.49
2023-03-29T20:20:22.230Z,83.76
2023-03-29T20:24:25.027Z,83.61
2023-03-29T20:28:26.514Z,84.13
2023-03-29T20:32:27.848Z,84.87
2023-03-29T20:36:29.272Z,83.60
2023-03-29T20:40:34.186Z,83.61
2023-03-29T20:44:35.565Z,82.95
2023-03-29T20:48:36.902Z,82.60
2023-03-29T20:52:38.255Z,82.35
2023-03-29T20:56:41.057Z,82.44
2023-03-29T21:00:42.560Z,82.42
2023-03-29T21:04:43.894Z,81.95
2023-03-29T21:08:45.269Z,81.98
2023-03-29T21:12:47.963Z,82.25
2023-03-29T21:16:49.359Z,82.04
2023-03-29T21:20:50.699Z,82.20
2023-03-29T21:24:52.065Z,82.06
2023-03-29T21:28:54.776Z,82.49
2023-03-29T21:32:56.170Z,82.11
2023-03-29T21:36:57.524Z,81.88
2023-03-29T21:40:59.067Z,81.91
2023-03-29T21:45:02.082Z,82.30
2023-03-29T21:49:03.423Z,82.23
2023-03-29T21:53:04.782Z,82.29
2023-03-29T21:57:06.161Z,82.21
2023-03-29T22:01:08.929Z,82.14
2023-03-29T22:05:10.304Z,82.68
2023-03-29T22:09:11.661Z,82.91
2023-03-29T22:13:12.995Z,82.56
2023-03-29T22:17:15.698Z,82.67
2023-03-29T22:21:18.620Z,82.64
2023-03-29T22:25:19.972Z,82.63
2023-03-29T22:29:21.309Z,82.78
2023-03-29T22:33:24.035Z,83.00
2023-03-29T22:37:25.462Z,83.06
2023-03-29T22:41:26.855Z,83.19
2023-03-29T22:45:28.175Z,83.14
2023-03-29T22:49:30.870Z,82.62
2023-03-29T22:53:32.764Z,83.10
2023-03-29T22:57:34.146Z,83.14
2023-03-29T23:01:35.528Z,82.77
2023-03-29T23:05:38.280Z,82.23
2023-03-29T23:09:39.607Z,82.24
2023-03-29T23:13:40.971Z,82.32
2023-03-29T23:17:42.400Z,82.25
2023-03-29T23:21:45.129Z,82.58
2023-03-29T23:25:47.220Z,83.30
2023-03-29T23:29:48.597Z,83.47
2023-03-29T23:33:49.989Z,83.31
2023-03-29T23:37:52.729Z,82.97
2023-03-29T23:41:54.133Z,83.02
2023-03-29T23:45:55.814Z,82.71
2023-03-29T23:49:57.159Z,82.46
2023-03-29T23:53:59.855Z,82.24
2023-03-29T23:58:01.205Z,82.64
